Equality — ODTX — position and weather

sailwx.info

Track history (hours):
 
Tides and Currents Weather Stations Pressure Air Temp Water Temp Dewpoint Dewpoint Depression Visibility Wind Speed Wind Dir Waves Ship Positions

Equality

Last reported at 2016-Apr-30 16:27 UTC. Time now 2016-May-01 06:05 UTC.
Position N 33°55' E 035°32'.

Length 124 m; draft 6 m.

Type: Cargo ship. MMSI: 450501000.

Date/timePositionNaut miles runAvg speedWind from/ knotsBaromVisibWave heightAir tempDewpointWater temp
2016-Apr-30 16:27N 33°55' E 035°32'8 9.4
2016-Apr-30 15:34N 33°55' E 035°22'1010.1
2016-Apr-30 14:34N 33°55' E 035°10'2010.2
2016-Apr-30 12:34N 33°58' E 034°45'1110.7
2016-Apr-30 11:33N 33°59' E 034°32'1411.0
2016-Apr-30 10:20N 33°60' E 034°16'810.9
2016-Apr-30 09:34N 34°00' E 034°06'1211.1
2016-Apr-30 08:31N 34°01' E 033°52'1111.1
2016-Apr-30 07:33N 34°02' E 033°39'1110.8
2016-Apr-30 06:30N 34°04' E 033°25'1011.0
2016-Apr-30 05:34N 34°05' E 033°13'1110.8
2016-Apr-30 04:34N 34°06' E 033°00'1110.8
2016-Apr-30 03:33N 34°08' E 032°47'1110.9
2016-Apr-30 02:34N 34°09' E 032°34'1110.9
2016-Apr-30 01:33N 34°10' E 032°21'3210.6
2016-Apr-29 22:34N 34°12' E 031°43'1310.6
2016-Apr-29 21:21N 34°14' E 031°27'  
2016-Apr-26 16:33N 36°26' E 014°35'1110.9
2016-Apr-26 15:33N 36°28' E 014°22'1110.8
2016-Apr-26 14:33N 36°31' E 014°09'  
2016-Apr-23 17:25N 36°36' E 000°20'9 9.9
2016-Apr-23 16:29N 36°35' E 000°09'40 9.6
2016-Apr-23 12:18N 36°29' W 000°40'22211.1
2016-Apr-22 16:21N 35°59' W 005°13'1013.2
2016-Apr-22 15:33N 35°58' W 005°26'  
Track history (hours):
 
Tides and Currents Weather Stations Pressure Air Temp Water Temp Dewpoint Dewpoint Depression Visibility Wind Speed Wind Dir Waves Ship Positions

Equality

Last reported at 2016-Apr-30 16:27 UTC. Time now 2016-May-01 06:05 UTC.
Position N 33°55' E 035°32'.

Length 124 m; draft 6 m.

Type: Cargo ship. MMSI: 450501000.

Date/timePositionNaut miles runAvg speedWind from/ knotsBaromVisibWave heightAir tempDewpointWater temp
2016-Apr-30 16:27N 33°55' E 035°32'8 9.4
2016-Apr-30 15:34N 33°55' E 035°22'1010.1
2016-Apr-30 14:34N 33°55' E 035°10'2010.2
2016-Apr-30 12:34N 33°58' E 034°45'1110.7
2016-Apr-30 11:33N 33°59' E 034°32'1411.0
2016-Apr-30 10:20N 33°60' E 034°16'810.9
2016-Apr-30 09:34N 34°00' E 034°06'1211.1
2016-Apr-30 08:31N 34°01' E 033°52'1111.1
2016-Apr-30 07:33N 34°02' E 033°39'1110.8
2016-Apr-30 06:30N 34°04' E 033°25'1011.0
2016-Apr-30 05:34N 34°05' E 033°13'1110.8
2016-Apr-30 04:34N 34°06' E 033°00'1110.8
2016-Apr-30 03:33N 34°08' E 032°47'1110.9
2016-Apr-30 02:34N 34°09' E 032°34'1110.9
2016-Apr-30 01:33N 34°10' E 032°21'3210.6
2016-Apr-29 22:34N 34°12' E 031°43'1310.6
2016-Apr-29 21:21N 34°14' E 031°27'  
2016-Apr-26 16:33N 36°26' E 014°35'1110.9
2016-Apr-26 15:33N 36°28' E 014°22'1110.8
2016-Apr-26 14:33N 36°31' E 014°09'  
2016-Apr-23 17:25N 36°36' E 000°20'9 9.9
2016-Apr-23 16:29N 36°35' E 000°09'40 9.6
2016-Apr-23 12:18N 36°29' W 000°40'22211.1
2016-Apr-22 16:21N 35°59' W 005°13'1013.2
2016-Apr-22 15:33N 35°58' W 005°26'  

Dump ship's entire track history